Weather at Minas Airport [CLOSED]

Public forecast

Using degrees Celsius for public forecast. Weather courtesy of forecast.io.

Closest aviation weather report (METAR) to Minas Airport

Closest report is Ignacio Agramonte International Airport, 18.3 nm (33.8 km) WSW. Retrieved 2021/06/22 12:50 UTC (54 minutes ago):

MUCM 221250Z 06008KT 9000 SCT020 26/24 Q1018

Closest aviation forecast (TAF) to Minas Airport

Closest forecast is Ignacio Agramonte International Airport, 18.3 nm (33.8 km) WSW. Retrieved 2021/06/22 12:03 UTC (2 hours ago):

TAF MUCM 221100Z 2212/2312 VRB03KT 9000 SCT020 TEMPO 2218/2223 VRB05KT 4000 TSRA SCT018CB BKN020